sensor_id;sensor_type;location;lat;lon;timestamp;temperature;humidity
48752;DHT22;34544;48.836;9.174;2023-05-21T00:01:41;16.20;99.90
48752;DHT22;34544;48.836;9.174;2023-05-21T00:04:07;16.20;99.90
48752;DHT22;34544;48.836;9.174;2023-05-21T00:06:36;16.10;99.90
48752;DHT22;34544;48.836;9.174;2023-05-21T00:09:05;16.10;99.90
48752;DHT22;34544;48.836;9.174;2023-05-21T00:11:31;16.10;99.90
48752;DHT22;34544;48.836;9.174;2023-05-21T00:13:57;16.20;99.90
48752;DHT22;34544;48.836;9.174;2023-05-21T00:16:24;16.40;99.90
48752;DHT22;34544;48.836;9.174;2023-05-21T00:18:50;16.20;99.90
48752;DHT22;34544;48.836;9.174;2023-05-21T00:21:16;16.20;99.90
48752;DHT22;34544;48.836;9.174;2023-05-21T00:23:42;16.40;99.90
48752;DHT22;34544;48.836;9.174;2023-05-21T00:26:10;16.20;99.90
48752;DHT22;34544;48.836;9.174;2023-05-21T00:28:35;15.90;99.90
48752;DHT22;34544;48.836;9.174;2023-05-21T00:31:01;16.00;99.90
48752;DHT22;34544;48.836;9.174;2023-05-21T00:33:27;15.90;99.90
48752;DHT22;34544;48.836;9.174;2023-05-21T00:35:54;15.90;99.90
48752;DHT22;34544;48.836;9.174;2023-05-21T00:38:21;15.80;99.90
48752;DHT22;34544;48.836;9.174;2023-05-21T00:40:47;15.80;99.90
48752;DHT22;34544;48.836;9.174;2023-05-21T00:43:13;15.80;99.90
48752;DHT22;34544;48.836;9.174;2023-05-21T00:45:40;15.80;99.90
48752;DHT22;34544;48.836;9.174;2023-05-21T00:48:10;15.80;99.90
48752;DHT22;34544;48.836;9.174;2023-05-21T00:50:37;15.70;99.90
48752;DHT22;34544;48.836;9.174;2023-05-21T00:53:06;15.70;99.90
48752;DHT22;34544;48.836;9.174;2023-05-21T00:55:36;15.70;99.90
48752;DHT22;34544;48.836;9.174;2023-05-21T00:58:02;15.70;99.90
48752;DHT22;34544;48.836;9.174;2023-05-21T01:00:32;15.70;99.90
48752;DHT22;34544;48.836;9.174;2023-05-21T01:02:58;15.60;99.90
48752;DHT22;34544;48.836;9.174;2023-05-21T01:05:24;15.70;99.90
48752;DHT22;34544;48.836;9.174;2023-05-21T01:07:51;15.60;99.90
48752;DHT22;34544;48.836;9.174;2023-05-21T01:10:17;15.60;99.90
48752;DHT22;34544;48.836;9.174;2023-05-21T01:12:43;15.60;99.90
48752;DHT22;34544;48.836;9.174;2023-05-21T01:15:11;15.60;99.90
48752;DHT22;34544;48.836;9.174;2023-05-21T01:17:37;15.60;99.90
48752;DHT22;34544;48.836;9.174;2023-05-21T01:20:05;15.60;99.90
48752;DHT22;34544;48.836;9.174;2023-05-21T01:22:56;15.50;99.90
48752;DHT22;34544;48.836;9.174;2023-05-21T01:25:23;15.60;99.90
48752;DHT22;34544;48.836;9.174;2023-05-21T01:27:50;15.50;99.90
48752;DHT22;34544;48.836;9.174;2023-05-21T01:30:17;15.50;99.90
48752;DHT22;34544;48.836;9.174;2023-05-21T01:32:47;15.50;99.90
48752;DHT22;34544;48.836;9.174;2023-05-21T01:35:25;15.50;99.90
48752;DHT22;34544;48.836;9.174;2023-05-21T01:43:12;15.40;99.90
48752;DHT22;34544;48.836;9.174;2023-05-21T01:45:41;15.50;99.90
48752;DHT22;34544;48.836;9.174;2023-05-21T01:48:08;15.40;99.90
48752;DHT22;34544;48.836;9.174;2023-05-21T01:50:34;15.40;99.90
48752;DHT22;34544;48.836;9.174;2023-05-21T01:53:01;15.60;99.90
48752;DHT22;34544;48.836;9.174;2023-05-21T01:55:30;15.40;99.90
48752;DHT22;34544;48.836;9.174;2023-05-21T01:57:57;15.40;99.90
48752;DHT22;34544;48.836;9.174;2023-05-21T02:00:25;15.40;99.90
48752;DHT22;34544;48.836;9.174;2023-05-21T02:02:53;15.30;99.90
48752;DHT22;34544;48.836;9.174;2023-05-21T02:05:18;15.50;99.90
48752;DHT22;34544;48.836;9.174;2023-05-21T02:07:45;15.40;99.90
48752;DHT22;34544;48.836;9.174;2023-05-21T02:10:11;15.30;99.90
48752;DHT22;34544;48.836;9.174;2023-05-21T02:12:37;15.20;99.90
48752;DHT22;34544;48.836;9.174;2023-05-21T02:15:03;15.20;99.90
48752;DHT22;34544;48.836;9.174;2023-05-21T02:17:30;15.30;99.90
48752;DHT22;34544;48.836;9.174;2023-05-21T02:19:59;15.10;99.90
48752;DHT22;34544;48.836;9.174;2023-05-21T02:22:46;15.20;99.90
48752;DHT22;34544;48.836;9.174;2023-05-21T02:25:14;15.30;99.90
48752;DHT22;34544;48.836;9.174;2023-05-21T02:27:41;15.10;99.90
48752;DHT22;34544;48.836;9.174;2023-05-21T02:30:08;15.00;99.90
48752;DHT22;34544;48.836;9.174;2023-05-21T02:32:35;14.90;99.90
48752;DHT22;34544;48.836;9.174;2023-05-21T02:35:02;14.90;99.90
48752;DHT22;34544;48.836;9.174;2023-05-21T02:37:29;14.90;99.90
48752;DHT22;34544;48.836;9.174;2023-05-21T02:39:59;14.90;99.90
48752;DHT22;34544;48.836;9.174;2023-05-21T02:42:25;14.90;99.90
48752;DHT22;34544;48.836;9.174;2023-05-21T02:44:52;14.90;99.90
48752;DHT22;34544;48.836;9.174;2023-05-21T02:47:19;14.80;99.90
48752;DHT22;34544;48.836;9.174;2023-05-21T02:49:45;14.90;99.90
48752;DHT22;34544;48.836;9.174;2023-05-21T02:52:11;14.80;99.90
48752;DHT22;34544;48.836;9.174;2023-05-21T02:54:38;14.90;99.90
48752;DHT22;34544;48.836;9.174;2023-05-21T02:57:03;14.80;99.90
48752;DHT22;34544;48.836;9.174;2023-05-21T02:59:29;14.80;99.90
48752;DHT22;34544;48.836;9.174;2023-05-21T03:01:55;14.70;99.90
48752;DHT22;34544;48.836;9.174;2023-05-21T03:04:21;14.70;99.90
48752;DHT22;34544;48.836;9.174;2023-05-21T03:06:49;14.70;99.90
48752;DHT22;34544;48.836;9.174;2023-05-21T03:09:23;14.60;99.90
48752;DHT22;34544;48.836;9.174;2023-05-21T03:11:54;14.60;99.90
48752;DHT22;34544;48.836;9.174;2023-05-21T03:14:20;14.60;99.90
48752;DHT22;34544;48.836;9.174;2023-05-21T03:16:46;14.60;99.90
48752;DHT22;34544;48.836;9.174;2023-05-21T03:19:13;14.60;99.90
48752;DHT22;34544;48.836;9.174;2023-05-21T03:21:39;14.60;99.90
48752;DHT22;34544;48.836;9.174;2023-05-21T03:24:06;14.50;99.90
48752;DHT22;34544;48.836;9.174;2023-05-21T03:26:32;14.50;99.90
48752;DHT22;34544;48.836;9.174;2023-05-21T03:28:58;14.40;99.90
48752;DHT22;34544;48.836;9.174;2023-05-21T03:31:25;14.40;99.90
48752;DHT22;34544;48.836;9.174;2023-05-21T03:34:08;14.40;99.90
48752;DHT22;34544;48.836;9.174;2023-05-21T03:36:34;14.40;99.90
48752;DHT22;34544;48.836;9.174;2023-05-21T03:39:01;14.40;99.90
48752;DHT22;34544;48.836;9.174;2023-05-21T03:41:29;14.30;99.90
48752;DHT22;34544;48.836;9.174;2023-05-21T03:44:03;14.30;99.90
48752;DHT22;34544;48.836;9.174;2023-05-21T03:46:36;14.30;99.90
48752;DHT22;34544;48.836;9.174;2023-05-21T03:49:06;14.30;99.90
48752;DHT22;34544;48.836;9.174;2023-05-21T03:51:34;14.30;99.90
48752;DHT22;34544;48.836;9.174;2023-05-21T03:54:00;14.30;99.90
48752;DHT22;34544;48.836;9.174;2023-05-21T03:56:26;14.30;99.90
48752;DHT22;34544;48.836;9.174;2023-05-21T03:58:52;14.20;99.90
48752;DHT22;34544;48.836;9.174;2023-05-21T04:01:18;14.20;99.90
48752;DHT22;34544;48.836;9.174;2023-05-21T04:03:45;14.20;99.90
48752;DHT22;34544;48.836;9.174;2023-05-21T04:06:13;14.20;99.90
48752;DHT22;34544;48.836;9.174;2023-05-21T04:08:40;14.30;99.90
48752;DHT22;34544;48.836;9.174;2023-05-21T04:11:07;14.30;99.90
48752;DHT22;34544;48.836;9.174;2023-05-21T04:13:34;14.30;99.90
48752;DHT22;34544;48.836;9.174;2023-05-21T04:16:00;14.30;99.90
48752;DHT22;34544;48.836;9.174;2023-05-21T04:18:25;14.30;99.90
48752;DHT22;34544;48.836;9.174;2023-05-21T04:20:51;14.40;99.90
48752;DHT22;34544;48.836;9.174;2023-05-21T04:23:18;14.40;99.90
48752;DHT22;34544;48.836;9.174;2023-05-21T04:25:43;14.40;99.90
48752;DHT22;34544;48.836;9.174;2023-05-21T04:28:09;14.50;99.90
48752;DHT22;34544;48.836;9.174;2023-05-21T04:30:35;14.50;99.90
48752;DHT22;34544;48.836;9.174;2023-05-21T04:33:02;14.50;99.90
48752;DHT22;34544;48.836;9.174;2023-05-21T04:35:28;14.50;99.90
48752;DHT22;34544;48.836;9.174;2023-05-21T04:37:54;14.50;99.90
48752;DHT22;34544;48.836;9.174;2023-05-21T04:40:20;14.50;99.90
48752;DHT22;34544;48.836;9.174;2023-05-21T04:42:52;14.50;99.90
48752;DHT22;34544;48.836;9.174;2023-05-21T04:45:20;14.60;99.90
48752;DHT22;34544;48.836;9.174;2023-05-21T04:47:49;14.60;99.90
48752;DHT22;34544;48.836;9.174;2023-05-21T04:50:15;14.60;99.90
48752;DHT22;34544;48.836;9.174;2023-05-21T04:52:41;14.70;99.90
48752;DHT22;34544;48.836;9.174;2023-05-21T04:55:07;14.70;99.90
48752;DHT22;34544;48.836;9.174;2023-05-21T04:57:33;14.70;99.90
48752;DHT22;34544;48.836;9.174;2023-05-21T04:59:59;14.70;99.90
48752;DHT22;34544;48.836;9.174;2023-05-21T05:02:27;14.70;99.90
48752;DHT22;34544;48.836;9.174;2023-05-21T05:04:52;14.80;99.90
48752;DHT22;34544;48.836;9.174;2023-05-21T05:07:18;14.80;99.90
48752;DHT22;34544;48.836;9.174;2023-05-21T05:09:43;14.90;99.90
48752;DHT22;34544;48.836;9.174;2023-05-21T05:12:09;14.90;99.90
48752;DHT22;34544;48.836;9.174;2023-05-21T05:14:35;14.90;99.90
48752;DHT22;34544;48.836;9.174;2023-05-21T05:17:00;15.00;99.90
48752;DHT22;34544;48.836;9.174;2023-05-21T05:19:27;15.00;99.90
48752;DHT22;34544;48.836;9.174;2023-05-21T05:21:53;15.10;99.90
48752;DHT22;34544;48.836;9.174;2023-05-21T05:24:19;15.10;99.90
48752;DHT22;34544;48.836;9.174;2023-05-21T05:26:45;15.20;99.90
48752;DHT22;34544;48.836;9.174;2023-05-21T05:29:12;15.20;99.90
48752;DHT22;34544;48.836;9.174;2023-05-21T05:31:38;15.20;99.90
48752;DHT22;34544;48.836;9.174;2023-05-21T05:34:04;15.30;99.90
48752;DHT22;34544;48.836;9.174;2023-05-21T05:36:29;15.30;99.90
48752;DHT22;34544;48.836;9.174;2023-05-21T05:38:56;15.20;99.90
48752;DHT22;34544;48.836;9.174;2023-05-21T05:41:21;15.30;99.90
48752;DHT22;34544;48.836;9.174;2023-05-21T05:43:48;15.30;99.90
48752;DHT22;34544;48.836;9.174;2023-05-21T05:46:17;15.40;99.90
48752;DHT22;34544;48.836;9.174;2023-05-21T05:48:44;15.40;99.90
48752;DHT22;34544;48.836;9.174;2023-05-21T05:51:09;15.50;99.90
48752;DHT22;34544;48.836;9.174;2023-05-21T05:53:36;15.60;99.90
48752;DHT22;34544;48.836;9.174;2023-05-21T05:56:02;15.60;99.90
48752;DHT22;34544;48.836;9.174;2023-05-21T05:58:29;15.70;99.90
48752;DHT22;34544;48.836;9.174;2023-05-21T06:01:05;15.80;99.90
48752;DHT22;34544;48.836;9.174;2023-05-21T06:03:31;15.80;99.90
48752;DHT22;34544;48.836;9.174;2023-05-21T06:05:57;15.90;99.90
48752;DHT22;34544;48.836;9.174;2023-05-21T06:08:26;15.90;99.90
48752;DHT22;34544;48.836;9.174;2023-05-21T06:10:52;16.00;99.90
48752;DHT22;34544;48.836;9.174;2023-05-21T06:13:20;16.10;99.90
48752;DHT22;34544;48.836;9.174;2023-05-21T06:15:48;16.30;99.90
48752;DHT22;34544;48.836;9.174;2023-05-21T06:18:14;16.30;99.90
48752;DHT22;34544;48.836;9.174;2023-05-21T06:23:07;16.40;99.90
48752;DHT22;34544;48.836;9.174;2023-05-21T06:25:33;16.50;99.90
48752;DHT22;34544;48.836;9.174;2023-05-21T06:27:59;16.60;99.90
48752;DHT22;34544;48.836;9.174;2023-05-21T06:30:27;16.70;99.90
48752;DHT22;34544;48.836;9.174;2023-05-21T06:32:53;16.80;99.90
48752;DHT22;34544;48.836;9.174;2023-05-21T06:35:18;16.90;99.90
48752;DHT22;34544;48.836;9.174;2023-05-21T06:37:44;16.80;99.90
48752;DHT22;34544;48.836;9.174;2023-05-21T06:40:10;16.90;99.90
48752;DHT22;34544;48.836;9.174;2023-05-21T06:42:38;16.90;99.90
48752;DHT22;34544;48.836;9.174;2023-05-21T06:45:22;17.00;99.90
48752;DHT22;34544;48.836;9.174;2023-05-21T06:50:19;17.20;99.90
48752;DHT22;34544;48.836;9.174;2023-05-21T06:52:45;17.30;99.90
48752;DHT22;34544;48.836;9.174;2023-05-21T06:55:10;17.40;99.90
48752;DHT22;34544;48.836;9.174;2023-05-21T06:57:56;17.50;99.90
48752;DHT22;34544;48.836;9.174;2023-05-21T07:00:22;17.70;99.90
48752;DHT22;34544;48.836;9.174;2023-05-21T07:02:48;17.80;99.90
48752;DHT22;34544;48.836;9.174;2023-05-21T07:05:13;18.00;99.90
48752;DHT22;34544;48.836;9.174;2023-05-21T07:07:40;18.10;99.90
48752;DHT22;34544;48.836;9.174;2023-05-21T07:10:06;18.20;99.90
48752;DHT22;34544;48.836;9.174;2023-05-21T07:12:32;18.40;99.90
48752;DHT22;34544;48.836;9.174;2023-05-21T07:17:26;18.60;99.90
48752;DHT22;34544;48.836;9.174;2023-05-21T07:19:52;18.70;99.90
48752;DHT22;34544;48.836;9.174;2023-05-21T07:22:18;18.80;99.90
48752;DHT22;34544;48.836;9.174;2023-05-21T07:24:44;18.90;99.90
48752;DHT22;34544;48.836;9.174;2023-05-21T07:27:09;19.10;99.90
48752;DHT22;34544;48.836;9.174;2023-05-21T07:32:02;19.50;99.90
48752;DHT22;34544;48.836;9.174;2023-05-21T07:34:28;19.60;99.90
48752;DHT22;34544;48.836;9.174;2023-05-21T07:36:54;19.80;99.90
48752;DHT22;34544;48.836;9.174;2023-05-21T07:39:20;19.90;99.90
48752;DHT22;34544;48.836;9.174;2023-05-21T07:41:46;20.00;99.90
48752;DHT22;34544;48.836;9.174;2023-05-21T07:44:12;20.10;99.90
48752;DHT22;34544;48.836;9.174;2023-05-21T07:46:41;20.10;99.90
48752;DHT22;34544;48.836;9.174;2023-05-21T07:49:08;20.30;99.90
48752;DHT22;34544;48.836;9.174;2023-05-21T07:51:41;20.50;99.90
48752;DHT22;34544;48.836;9.174;2023-05-21T07:54:07;20.70;99.90
48752;DHT22;34544;48.836;9.174;2023-05-21T07:59:01;21.30;99.90
48752;DHT22;34544;48.836;9.174;2023-05-21T08:01:27;22.50;99.90
48752;DHT22;34544;48.836;9.174;2023-05-21T08:06:21;22.30;99.90
48752;DHT22;34544;48.836;9.174;2023-05-21T08:08:48;22.50;99.90
48752;DHT22;34544;48.836;9.174;2023-05-21T08:11:15;22.70;99.90
48752;DHT22;34544;48.836;9.174;2023-05-21T08:13:40;22.80;99.90
48752;DHT22;34544;48.836;9.174;2023-05-21T08:18:36;23.30;99.90
48752;DHT22;34544;48.836;9.174;2023-05-21T08:21:01;23.60;99.90
48752;DHT22;34544;48.836;9.174;2023-05-21T08:23:28;23.90;99.90
48752;DHT22;34544;48.836;9.174;2023-05-21T08:25:55;24.20;99.90
48752;DHT22;34544;48.836;9.174;2023-05-21T08:28:21;24.40;99.90
48752;DHT22;34544;48.836;9.174;2023-05-21T08:30:48;24.50;99.90
48752;DHT22;34544;48.836;9.174;2023-05-21T08:33:15;24.70;99.90
48752;DHT22;34544;48.836;9.174;2023-05-21T08:35:43;24.90;99.90
48752;DHT22;34544;48.836;9.174;2023-05-21T08:38:19;25.20;99.90
48752;DHT22;34544;48.836;9.174;2023-05-21T08:41:00;25.30;99.90
48752;DHT22;34544;48.836;9.174;2023-05-21T08:43:28;25.40;99.90
48752;DHT22;34544;48.836;9.174;2023-05-21T08:45:56;25.40;99.90
48752;DHT22;34544;48.836;9.174;2023-05-21T08:48:27;25.60;99.90
48752;DHT22;34544;48.836;9.174;2023-05-21T08:50:55;25.70;99.90
48752;DHT22;34544;48.836;9.174;2023-05-21T08:53:29;25.70;99.90
48752;DHT22;34544;48.836;9.174;2023-05-21T08:55:57;25.80;99.90
48752;DHT22;34544;48.836;9.174;2023-05-21T08:58:31;25.80;99.90
48752;DHT22;34544;48.836;9.174;2023-05-21T09:00:58;26.00;99.90
48752;DHT22;34544;48.836;9.174;2023-05-21T09:03:26;26.00;99.90
48752;DHT22;34544;48.836;9.174;2023-05-21T09:05:53;26.10;99.90
48752;DHT22;34544;48.836;9.174;2023-05-21T09:08:33;26.00;99.90
48752;DHT22;34544;48.836;9.174;2023-05-21T09:11:02;26.00;99.90
48752;DHT22;34544;48.836;9.174;2023-05-21T09:13:34;26.20;99.90
48752;DHT22;34544;48.836;9.174;2023-05-21T09:16:05;26.30;99.90
48752;DHT22;34544;48.836;9.174;2023-05-21T09:18:31;26.40;99.90
48752;DHT22;34544;48.836;9.174;2023-05-21T09:21:27;26.30;99.90
48752;DHT22;34544;48.836;9.174;2023-05-21T09:24:05;26.20;99.90
48752;DHT22;34544;48.836;9.174;2023-05-21T09:26:33;26.10;99.90
48752;DHT22;34544;48.836;9.174;2023-05-21T09:29:02;26.00;99.90
48752;DHT22;34544;48.836;9.174;2023-05-21T09:31:29;25.90;99.90
48752;DHT22;34544;48.836;9.174;2023-05-21T09:33:55;25.80;99.90
48752;DHT22;34544;48.836;9.174;2023-05-21T09:36:21;25.50;99.90
48752;DHT22;34544;48.836;9.174;2023-05-21T09:38:48;25.30;99.90
48752;DHT22;34544;48.836;9.174;2023-05-21T09:41:14;25.00;99.90
48752;DHT22;34544;48.836;9.174;2023-05-21T09:43:43;25.00;99.90
48752;DHT22;34544;48.836;9.174;2023-05-21T09:46:11;24.90;99.90
48752;DHT22;34544;48.836;9.174;2023-05-21T09:48:38;25.00;99.90
48752;DHT22;34544;48.836;9.174;2023-05-21T09:51:12;25.00;99.90
48752;DHT22;34544;48.836;9.174;2023-05-21T09:53:52;25.10;99.90
48752;DHT22;34544;48.836;9.174;2023-05-21T09:56:23;25.40;99.90
48752;DHT22;34544;48.836;9.174;2023-05-21T09:58:56;25.50;99.90
48752;DHT22;34544;48.836;9.174;2023-05-21T10:01:23;25.80;99.90
48752;DHT22;34544;48.836;9.174;2023-05-21T10:03:55;26.10;99.90
48752;DHT22;34544;48.836;9.174;2023-05-21T10:06:27;26.50;99.90
48752;DHT22;34544;48.836;9.174;2023-05-21T10:08:54;27.10;99.90
48752;DHT22;34544;48.836;9.174;2023-05-21T10:11:30;27.60;99.90
48752;DHT22;34544;48.836;9.174;2023-05-21T10:14:26;28.00;99.90
48752;DHT22;34544;48.836;9.174;2023-05-21T10:16:53;28.40;99.90
48752;DHT22;34544;48.836;9.174;2023-05-21T10:19:19;28.70;99.90
48752;DHT22;34544;48.836;9.174;2023-05-21T10:21:46;28.90;99.70
48752;DHT22;34544;48.836;9.174;2023-05-21T10:24:12;29.10;99.80
48752;DHT22;34544;48.836;9.174;2023-05-21T10:26:40;29.50;99.10
48752;DHT22;34544;48.836;9.174;2023-05-21T10:29:06;29.90;98.10
48752;DHT22;34544;48.836;9.174;2023-05-21T10:31:32;30.10;97.80
48752;DHT22;34544;48.836;9.174;2023-05-21T10:33:59;30.00;97.50
48752;DHT22;34544;48.836;9.174;2023-05-21T10:36:29;29.90;96.80
48752;DHT22;34544;48.836;9.174;2023-05-21T10:38:56;29.90;96.90
48752;DHT22;34544;48.836;9.174;2023-05-21T10:41:23;30.00;97.20
48752;DHT22;34544;48.836;9.174;2023-05-21T10:47:24;30.40;96.50
48752;DHT22;34544;48.836;9.174;2023-05-21T10:49:47;30.70;97.10
48752;DHT22;34544;48.836;9.174;2023-05-21T10:55:48;30.90;95.90
48752;DHT22;34544;48.836;9.174;2023-05-21T11:00:46;30.80;96.10
48752;DHT22;34544;48.836;9.174;2023-05-21T11:03:12;30.90;95.60
48752;DHT22;34544;48.836;9.174;2023-05-21T11:05:52;31.00;96.00
48752;DHT22;34544;48.836;9.174;2023-05-21T11:10:55;31.10;93.90
48752;DHT22;34544;48.836;9.174;2023-05-21T11:13:26;30.90;93.80
48752;DHT22;34544;48.836;9.174;2023-05-21T11:21:04;30.30;94.90
48752;DHT22;34544;48.836;9.174;2023-05-21T11:26:26;30.30;95.00
48752;DHT22;34544;48.836;9.174;2023-05-21T11:31:30;30.20;94.50
48752;DHT22;34544;48.836;9.174;2023-05-21T11:34:19;30.00;95.10
48752;DHT22;34544;48.836;9.174;2023-05-21T11:39:43;29.70;94.70
48752;DHT22;34544;48.836;9.174;2023-05-21T11:42:09;29.50;94.70
48752;DHT22;34544;48.836;9.174;2023-05-21T11:44:42;29.40;95.70
48752;DHT22;34544;48.836;9.174;2023-05-21T11:47:16;29.30;95.00
48752;DHT22;34544;48.836;9.174;2023-05-21T11:49:45;29.40;95.10
48752;DHT22;34544;48.836;9.174;2023-05-21T11:52:13;29.40;95.30
48752;DHT22;34544;48.836;9.174;2023-05-21T11:54:43;29.50;94.90
48752;DHT22;34544;48.836;9.174;2023-05-21T11:57:16;29.50;95.30
48752;DHT22;34544;48.836;9.174;2023-05-21T11:59:45;29.50;94.90
48752;DHT22;34544;48.836;9.174;2023-05-21T12:02:15;29.60;95.20
48752;DHT22;34544;48.836;9.174;2023-05-21T12:04:41;29.50;94.70
48752;DHT22;34544;48.836;9.174;2023-05-21T12:07:09;29.50;94.10
48752;DHT22;34544;48.836;9.174;2023-05-21T12:09:48;29.20;94.70
48752;DHT22;34544;48.836;9.174;2023-05-21T12:12:18;28.90;95.00
48752;DHT22;34544;48.836;9.174;2023-05-21T12:14:48;28.80;95.60
48752;DHT22;34544;48.836;9.174;2023-05-21T12:17:21;28.90;96.10
48752;DHT22;34544;48.836;9.174;2023-05-21T12:19:53;28.90;95.60
48752;DHT22;34544;48.836;9.174;2023-05-21T12:22:20;29.00;95.70
48752;DHT22;34544;48.836;9.174;2023-05-21T12:24:46;29.20;96.40
48752;DHT22;34544;48.836;9.174;2023-05-21T12:27:13;29.30;95.00
48752;DHT22;34544;48.836;9.174;2023-05-21T12:29:46;29.40;95.40
48752;DHT22;34544;48.836;9.174;2023-05-21T12:32:14;29.40;94.80
48752;DHT22;34544;48.836;9.174;2023-05-21T12:34:48;29.30;94.30
48752;DHT22;34544;48.836;9.174;2023-05-21T12:39:52;29.20;95.10
48752;DHT22;34544;48.836;9.174;2023-05-21T12:42:28;29.20;94.30
48752;DHT22;34544;48.836;9.174;2023-05-21T12:45:07;29.10;94.90
48752;DHT22;34544;48.836;9.174;2023-05-21T12:47:33;29.00;94.70
48752;DHT22;34544;48.836;9.174;2023-05-21T12:50:00;28.90;95.30
48752;DHT22;34544;48.836;9.174;2023-05-21T12:52:26;28.80;95.50
48752;DHT22;34544;48.836;9.174;2023-05-21T12:54:54;28.70;95.00
48752;DHT22;34544;48.836;9.174;2023-05-21T12:57:24;28.60;95.40
48752;DHT22;34544;48.836;9.174;2023-05-21T12:59:57;28.60;95.20
48752;DHT22;34544;48.836;9.174;2023-05-21T13:07:21;28.50;95.30
48752;DHT22;34544;48.836;9.174;2023-05-21T13:09:47;28.40;95.30
48752;DHT22;34544;48.836;9.174;2023-05-21T13:12:13;28.40;96.00
48752;DHT22;34544;48.836;9.174;2023-05-21T13:14:38;28.50;95.40
48752;DHT22;34544;48.836;9.174;2023-05-21T13:17:04;28.60;95.80
48752;DHT22;34544;48.836;9.174;2023-05-21T13:19:30;28.60;94.90
48752;DHT22;34544;48.836;9.174;2023-05-21T13:21:56;28.60;94.70
48752;DHT22;34544;48.836;9.174;2023-05-21T13:24:21;28.70;94.40
48752;DHT22;34544;48.836;9.174;2023-05-21T13:26:47;28.80;94.70
48752;DHT22;34544;48.836;9.174;2023-05-21T13:29:13;28.90;94.00
48752;DHT22;34544;48.836;9.174;2023-05-21T13:31:42;28.90;93.40
48752;DHT22;34544;48.836;9.174;2023-05-21T13:34:12;28.70;93.20
48752;DHT22;34544;48.836;9.174;2023-05-21T13:36:38;28.60;93.20
48752;DHT22;34544;48.836;9.174;2023-05-21T13:39:04;28.70;94.00
48752;DHT22;34544;48.836;9.174;2023-05-21T13:41:30;29.00;92.20
48752;DHT22;34544;48.836;9.174;2023-05-21T13:43:57;29.20;92.30
48752;DHT22;34544;48.836;9.174;2023-05-21T13:46:22;29.40;93.00
48752;DHT22;34544;48.836;9.174;2023-05-21T13:48:48;29.60;92.70
48752;DHT22;34544;48.836;9.174;2023-05-21T13:51:14;29.80;92.60
48752;DHT22;34544;48.836;9.174;2023-05-21T13:53:39;30.10;93.00
48752;DHT22;34544;48.836;9.174;2023-05-21T13:56:05;30.20;90.90
48752;DHT22;34544;48.836;9.174;2023-05-21T13:58:31;30.30;90.80
48752;DHT22;34544;48.836;9.174;2023-05-21T14:01:03;30.50;91.40
48752;DHT22;34544;48.836;9.174;2023-05-21T14:03:28;30.90;90.70
48752;DHT22;34544;48.836;9.174;2023-05-21T14:05:57;31.20;91.00
48752;DHT22;34544;48.836;9.174;2023-05-21T14:08:23;31.30;90.40
48752;DHT22;34544;48.836;9.174;2023-05-21T14:13:16;31.70;87.50
48752;DHT22;34544;48.836;9.174;2023-05-21T14:15:42;31.80;88.10
48752;DHT22;34544;48.836;9.174;2023-05-21T14:18:08;32.00;87.10
48752;DHT22;34544;48.836;9.174;2023-05-21T14:23:03;32.30;85.50
48752;DHT22;34544;48.836;9.174;2023-05-21T14:25:29;32.30;86.60
48752;DHT22;34544;48.836;9.174;2023-05-21T14:27:55;32.10;87.40
48752;DHT22;34544;48.836;9.174;2023-05-21T14:30:21;32.10;85.90
48752;DHT22;34544;48.836;9.174;2023-05-21T14:32:46;32.10;87.40
48752;DHT22;34544;48.836;9.174;2023-05-21T14:35:12;32.10;87.60
48752;DHT22;34544;48.836;9.174;2023-05-21T14:37:38;32.00;86.20
48752;DHT22;34544;48.836;9.174;2023-05-21T14:40:04;31.90;84.30
48752;DHT22;34544;48.836;9.174;2023-05-21T14:42:32;31.70;86.00
48752;DHT22;34544;48.836;9.174;2023-05-21T14:44:58;31.50;83.40
48752;DHT22;34544;48.836;9.174;2023-05-21T14:47:24;31.30;83.70
48752;DHT22;34544;48.836;9.174;2023-05-21T14:49:50;31.20;81.90
48752;DHT22;34544;48.836;9.174;2023-05-21T14:52:16;31.10;83.20
48752;DHT22;34544;48.836;9.174;2023-05-21T14:54:41;31.00;81.20
48752;DHT22;34544;48.836;9.174;2023-05-21T14:57:07;30.80;82.90
48752;DHT22;34544;48.836;9.174;2023-05-21T14:59:32;30.60;81.00
48752;DHT22;34544;48.836;9.174;2023-05-21T15:01:58;30.20;78.30
48752;DHT22;34544;48.836;9.174;2023-05-21T15:04:24;30.00;79.70
48752;DHT22;34544;48.836;9.174;2023-05-21T15:06:49;29.80;82.00
48752;DHT22;34544;48.836;9.174;2023-05-21T15:09:15;29.60;83.90
48752;DHT22;34544;48.836;9.174;2023-05-21T15:11:41;29.50;82.10
48752;DHT22;34544;48.836;9.174;2023-05-21T15:14:09;29.30;82.90
48752;DHT22;34544;48.836;9.174;2023-05-21T15:16:34;29.10;84.40
48752;DHT22;34544;48.836;9.174;2023-05-21T15:19:00;29.00;87.00
48752;DHT22;34544;48.836;9.174;2023-05-21T15:21:26;29.00;84.60
48752;DHT22;34544;48.836;9.174;2023-05-21T15:23:51;28.80;85.50
48752;DHT22;34544;48.836;9.174;2023-05-21T15:26:17;28.70;86.80
48752;DHT22;34544;48.836;9.174;2023-05-21T15:28:43;28.70;86.40
48752;DHT22;34544;48.836;9.174;2023-05-21T15:31:09;28.80;86.10
48752;DHT22;34544;48.836;9.174;2023-05-21T15:33:35;28.90;87.00
48752;DHT22;34544;48.836;9.174;2023-05-21T15:36:01;28.90;88.60
48752;DHT22;34544;48.836;9.174;2023-05-21T15:38:27;29.00;86.50
48752;DHT22;34544;48.836;9.174;2023-05-21T15:40:52;28.90;87.50
48752;DHT22;34544;48.836;9.174;2023-05-21T15:43:18;29.00;88.70
48752;DHT22;34544;48.836;9.174;2023-05-21T15:45:44;29.10;87.70
48752;DHT22;34544;48.836;9.174;2023-05-21T15:48:09;29.40;88.40
48752;DHT22;34544;48.836;9.174;2023-05-21T15:50:36;29.50;88.80
48752;DHT22;34544;48.836;9.174;2023-05-21T15:53:03;29.70;89.30
48752;DHT22;34544;48.836;9.174;2023-05-21T15:55:31;29.80;88.60
48752;DHT22;34544;48.836;9.174;2023-05-21T15:57:57;29.80;89.30
48752;DHT22;34544;48.836;9.174;2023-05-21T16:00:23;29.80;87.80
48752;DHT22;34544;48.836;9.174;2023-05-21T16:02:49;29.70;88.20
48752;DHT22;34544;48.836;9.174;2023-05-21T16:05:15;29.60;88.80
48752;DHT22;34544;48.836;9.174;2023-05-21T16:07:41;29.60;87.20
48752;DHT22;34544;48.836;9.174;2023-05-21T16:10:08;29.50;90.10
48752;DHT22;34544;48.836;9.174;2023-05-21T16:12:34;29.40;88.90
48752;DHT22;34544;48.836;9.174;2023-05-21T16:14:59;29.30;90.00
48752;DHT22;34544;48.836;9.174;2023-05-21T16:17:25;29.30;89.10
48752;DHT22;34544;48.836;9.174;2023-05-21T16:19:51;29.10;89.20
48752;DHT22;34544;48.836;9.174;2023-05-21T16:22:17;29.00;90.70
48752;DHT22;34544;48.836;9.174;2023-05-21T16:24:46;29.00;91.20
48752;DHT22;34544;48.836;9.174;2023-05-21T16:27:11;28.90;91.10
48752;DHT22;34544;48.836;9.174;2023-05-21T16:29:37;28.80;90.20
48752;DHT22;34544;48.836;9.174;2023-05-21T16:32:03;28.70;90.40
48752;DHT22;34544;48.836;9.174;2023-05-21T16:34:29;28.70;90.30